createdAt,value
2022-10-06T00:00:35.085Z,1.40
2022-10-06T00:03:04.632Z,1.80
2022-10-06T00:05:34.134Z,1.85
2022-10-06T00:08:04.528Z,1.92
2022-10-06T00:10:34.469Z,1.63
2022-10-06T00:13:04.865Z,1.60
2022-10-06T00:15:37.785Z,1.85
2022-10-06T00:18:07.757Z,1.40
2022-10-06T00:20:37.267Z,1.20
2022-10-06T00:23:06.807Z,1.92
2022-10-06T00:25:36.323Z,1.60
2022-10-06T00:28:05.911Z,1.50
2022-10-06T00:30:38.083Z,1.40
2022-10-06T00:33:07.579Z,1.40
2022-10-06T00:35:37.391Z,1.50
2022-10-06T00:38:07.771Z,1.67
2022-10-06T00:40:37.271Z,1.42
2022-10-06T00:43:08.528Z,1.40
2022-10-06T00:45:44.336Z,1.70
2022-10-06T00:48:19.431Z,1.75
2022-10-06T00:50:49.632Z,1.52
2022-10-06T00:53:19.629Z,1.83
2022-10-06T00:55:49.875Z,1.70
2022-10-06T00:58:19.880Z,1.77
2022-10-06T01:00:55.078Z,1.95
2022-10-06T01:03:27.299Z,1.88
2022-10-06T01:05:57.719Z,1.80
2022-10-06T01:08:28.734Z,1.90
2022-10-06T01:10:58.448Z,2.03
2022-10-06T01:13:29.481Z,2.05
2022-10-06T01:16:06.362Z,2.20
2022-10-06T01:18:36.242Z,2.70
2022-10-06T01:21:09.370Z,2.35
2022-10-06T01:23:43.957Z,2.20
2022-10-06T01:26:14.329Z,2.40
2022-10-06T01:28:43.986Z,2.97
2022-10-06T01:31:13.941Z,3.30
2022-10-06T01:33:45.164Z,3.10
2022-10-06T01:36:15.157Z,3.20
2022-10-06T01:38:47.283Z,3.20
2022-10-06T01:41:16.811Z,3.38
2022-10-06T01:43:46.531Z,3.28
2022-10-06T01:46:16.218Z,3.22
2022-10-06T01:48:45.809Z,2.85
2022-10-06T01:51:17.892Z,2.70
2022-10-06T01:53:50.035Z,2.80
2022-10-06T01:56:21.139Z,3.20
2022-10-06T01:58:51.078Z,3.10
2022-10-06T02:01:21.157Z,3.25
2022-10-06T02:03:50.730Z,3.25
2022-10-06T02:06:20.352Z,3.30
2022-10-06T02:08:52.549Z,3.45
2022-10-06T02:11:22.229Z,3.70
2022-10-06T02:13:52.683Z,3.28
2022-10-06T02:16:22.333Z,2.78
2022-10-06T02:18:51.912Z,3.13
2022-10-06T02:21:23.837Z,3.08
2022-10-06T02:23:55.971Z,3.17
2022-10-06T02:26:25.720Z,3.55
2022-10-06T02:28:55.300Z,3.30
2022-10-06T02:31:27.040Z,2.80
2022-10-06T02:33:57.431Z,3.55
2022-10-06T02:36:27.262Z,3.53
2022-10-06T02:38:59.570Z,2.97
2022-10-06T02:41:29.125Z,3.10
2022-10-06T02:43:58.690Z,3.33
2022-10-06T02:46:28.320Z,3.33
2022-10-06T02:48:58.944Z,3.92
2022-10-06T02:51:28.531Z,3.38
2022-10-06T02:54:00.929Z,2.70
2022-10-06T02:56:30.649Z,2.70
2022-10-06T02:59:00.169Z,3.13
2022-10-06T03:01:35.843Z,3.15
2022-10-06T03:04:12.597Z,2.88
2022-10-06T03:06:44.105Z,2.83
2022-10-06T03:09:27.954Z,2.85
2022-10-06T03:11:58.703Z,3.25
2022-10-06T03:14:34.838Z,2.67
2022-10-06T03:17:04.391Z,2.88
2022-10-06T03:19:34.259Z,4.30
2022-10-06T03:22:03.837Z,3.13
2022-10-06T03:24:56.234Z,3.30
2022-10-06T03:27:25.821Z,3.33
2022-10-06T03:29:59.042Z,3.00
2022-10-06T03:32:30.811Z,2.72
2022-10-06T03:35:00.337Z,3.45
2022-10-06T03:37:31.303Z,3.20
2022-10-06T03:40:03.428Z,2.72
2022-10-06T03:42:33.055Z,3.10
2022-10-06T03:45:02.999Z,2.97
2022-10-06T03:47:33.465Z,3.50
2022-10-06T03:50:03.078Z,3.45
2022-10-06T03:52:32.865Z,3.00
2022-10-06T03:55:05.040Z,3.08
2022-10-06T03:57:34.595Z,3.33
2022-10-06T04:00:04.135Z,3.00
2022-10-06T04:02:41.944Z,3.28
2022-10-06T04:05:12.361Z,2.92
2022-10-06T04:07:42.069Z,3.08
2022-10-06T04:10:15.048Z,3.55
2022-10-06T04:12:44.794Z,3.55
2022-10-06T04:15:14.785Z,3.30
2022-10-06T04:17:44.512Z,3.70
2022-10-06T04:20:14.113Z,3.00
2022-10-06T04:22:43.712Z,3.22
2022-10-06T04:25:16.082Z,3.42
2022-10-06T04:27:46.111Z,3.28
2022-10-06T04:30:17.548Z,4.05
2022-10-06T04:32:47.471Z,3.55
2022-10-06T04:35:17.321Z,3.22
2022-10-06T04:37:47.352Z,2.72
2022-10-06T04:40:19.760Z,2.92
2022-10-06T04:42:49.355Z,3.33
2022-10-06T04:45:19.833Z,2.83
2022-10-06T04:47:51.231Z,3.00
2022-10-06T04:50:20.985Z,3.30
2022-10-06T04:53:08.948Z,2.78
2022-10-06T04:55:42.112Z,3.20
2022-10-06T04:58:12.365Z,2.90
2022-10-06T05:00:42.066Z,2.90
2022-10-06T05:03:11.707Z,4.65
2022-10-06T05:05:41.303Z,4.13
2022-10-06T05:08:10.985Z,3.28
2022-10-06T05:10:43.203Z,3.28
2022-10-06T05:13:13.249Z,2.90
2022-10-06T05:15:43.398Z,3.17
2022-10-06T05:18:12.994Z,2.80
2022-10-06T05:20:42.899Z,3.25
2022-10-06T05:23:12.549Z,3.17
2022-10-06T05:25:53.157Z,4.13
2022-10-06T05:28:24.367Z,4.15
2022-10-06T05:31:02.040Z,3.13
2022-10-06T05:33:34.766Z,3.20
2022-10-06T05:36:06.218Z,3.15
2022-10-06T05:38:37.104Z,3.63
2022-10-06T05:41:10.939Z,3.75
2022-10-06T05:43:41.979Z,3.05
2022-10-06T05:46:17.545Z,3.58
2022-10-06T05:48:49.526Z,3.22
2022-10-06T05:51:25.571Z,3.65
2022-10-06T05:53:58.129Z,3.47
2022-10-06T05:56:31.100Z,3.33
2022-10-06T05:59:01.535Z,3.45
2022-10-06T06:01:34.837Z,3.70
2022-10-06T06:04:09.401Z,3.72
2022-10-06T06:06:45.850Z,3.90
2022-10-06T06:09:20.413Z,3.72
2022-10-06T06:11:55.288Z,4.25
2022-10-06T06:14:45.840Z,3.70
2022-10-06T06:17:20.161Z,3.50
2022-10-06T06:19:49.734Z,3.65
2022-10-06T06:22:19.335Z,3.75
2022-10-06T06:24:51.392Z,3.85
2022-10-06T06:27:24.189Z,3.80
2022-10-06T06:29:53.748Z,3.15
2022-10-06T06:32:23.379Z,3.80
2022-10-06T06:34:53.113Z,3.30
2022-10-06T06:37:22.725Z,3.72
2022-10-06T06:39:52.355Z,3.47
2022-10-06T06:42:26.507Z,3.63
2022-10-06T06:45:01.357Z,3.15
2022-10-06T06:48:04.276Z,3.58
2022-10-06T06:50:35.178Z,4.60
2022-10-06T06:53:06.327Z,3.42
2022-10-06T06:55:38.793Z,3.17
2022-10-06T06:58:11.068Z,3.55
2022-10-06T07:00:40.641Z,3.22
2022-10-06T07:03:13.321Z,3.92
2022-10-06T07:05:46.411Z,3.10
2022-10-06T07:08:19.916Z,3.08
2022-10-06T07:10:49.738Z,3.42
2022-10-06T07:13:22.072Z,3.22
2022-10-06T07:16:04.452Z,3.42
2022-10-06T07:18:46.591Z,3.35
2022-10-06T07:21:29.323Z,3.30
2022-10-06T07:24:11.821Z,3.05
2022-10-06T07:26:42.533Z,3.13
2022-10-06T07:29:14.722Z,3.00
2022-10-06T07:31:44.482Z,3.10
2022-10-06T07:34:14.103Z,2.92
2022-10-06T07:36:46.472Z,2.90
2022-10-06T07:39:16.387Z,3.10
2022-10-06T07:41:45.997Z,2.80
2022-10-06T07:44:18.336Z,3.08
2022-10-06T07:46:49.323Z,3.58
2022-10-06T07:49:21.917Z,3.40
2022-10-06T07:51:53.675Z,3.03
2022-10-06T07:54:27.264Z,3.00
2022-10-06T07:57:30.259Z,3.60
2022-10-06T08:00:04.417Z,3.28
2022-10-06T08:02:41.473Z,3.10
2022-10-06T08:05:12.038Z,2.72
2022-10-06T08:07:44.485Z,2.60
2022-10-06T08:10:14.109Z,3.50
2022-10-06T08:12:44.128Z,2.70
2022-10-06T08:15:16.607Z,2.80
2022-10-06T08:17:46.209Z,2.90
2022-10-06T08:20:17.581Z,3.10
2022-10-06T08:22:47.587Z,2.63
2022-10-06T08:25:17.271Z,2.58
2022-10-06T08:27:51.299Z,2.88
2022-10-06T08:30:27.116Z,3.65
2022-10-06T08:32:57.386Z,3.10
2022-10-06T08:35:27.564Z,2.65
2022-10-06T08:37:57.171Z,2.80
2022-10-06T08:40:27.184Z,2.97
2022-10-06T08:42:58.957Z,3.17
2022-10-06T08:45:38.691Z,2.70
2022-10-06T08:48:13.966Z,2.72
2022-10-06T08:50:54.236Z,2.83
2022-10-06T08:53:31.018Z,2.60
2022-10-06T08:56:07.076Z,3.03
2022-10-06T08:58:44.621Z,3.10
2022-10-06T09:01:23.492Z,2.90
2022-10-06T09:03:54.364Z,3.85
2022-10-06T09:06:38.037Z,3.28
2022-10-06T09:09:19.457Z,3.03
2022-10-06T09:11:58.160Z,2.63
2022-10-06T09:14:37.574Z,2.22
2022-10-06T09:17:13.811Z,2.60
2022-10-06T09:19:46.985Z,2.63
2022-10-06T09:24:50.461Z,2.63
2022-10-06T09:27:24.033Z,2.70
2022-10-06T09:29:54.716Z,2.50
2022-10-06T09:32:28.805Z,2.80
2022-10-06T09:35:00.609Z,3.00
2022-10-06T09:37:30.785Z,2.97
2022-10-06T09:40:00.592Z,2.60
2022-10-06T09:42:35.597Z,2.97
2022-10-06T09:45:08.529Z,3.10
2022-10-06T09:47:46.067Z,2.50
2022-10-06T09:50:22.877Z,3.17
2022-10-06T09:53:06.163Z,2.50
2022-10-06T09:55:37.151Z,3.13
2022-10-06T09:58:16.833Z,2.40
2022-10-06T10:00:50.143Z,3.05
2022-10-06T10:03:23.029Z,2.70
2022-10-06T10:05:54.948Z,3.00
2022-10-06T10:08:26.147Z,2.50
2022-10-06T10:11:27.483Z,2.80
2022-10-06T10:13:58.472Z,4.28
2022-10-06T10:16:28.670Z,3.10
2022-10-06T10:19:00.929Z,2.80
2022-10-06T10:21:33.350Z,2.50
2022-10-06T10:24:06.245Z,2.80
2022-10-06T10:26:44.921Z,2.70
2022-10-06T10:29:41.478Z,3.00
2022-10-06T10:32:15.324Z,2.88
2022-10-06T10:37:26.147Z,2.60
2022-10-06T10:39:58.957Z,2.90
2022-10-06T10:42:33.296Z,2.38
2022-10-06T10:45:04.541Z,2.50
2022-10-06T10:47:37.927Z,2.40
2022-10-06T10:50:19.796Z,2.25
2022-10-06T10:52:51.732Z,1.85
2022-10-06T10:55:27.724Z,2.60
2022-10-06T10:57:59.456Z,3.15
2022-10-06T11:00:35.375Z,2.60
2022-10-06T11:03:05.393Z,3.30
2022-10-06T11:06:01.790Z,2.00
2022-10-06T11:08:36.457Z,2.05
2022-10-06T11:11:08.925Z,2.38
2022-10-06T11:13:42.852Z,2.92
2022-10-06T11:18:57.400Z,2.22
2022-10-06T11:21:31.108Z,2.53
2022-10-06T11:24:03.308Z,2.15
2022-10-06T11:26:51.279Z,2.20
2022-10-06T11:29:30.139Z,2.60
2022-10-06T11:32:11.945Z,2.80
2022-10-06T11:34:41.908Z,2.80
2022-10-06T11:37:21.469Z,2.92
2022-10-06T11:39:57.996Z,2.30
2022-10-06T11:42:32.315Z,2.28
2022-10-06T11:45:06.633Z,2.47
2022-10-06T11:47:40.699Z,2.40
2022-10-06T11:50:34.377Z,1.88
2022-10-06T11:53:06.952Z,2.80
2022-10-06T11:55:36.510Z,2.40
2022-10-06T11:58:41.521Z,1.90
2022-10-06T12:01:07.051Z,2.45
2022-10-06T12:04:07.269Z,2.35
2022-10-06T12:07:02.156Z,2.50
2022-10-06T12:09:52.368Z,1.70
2022-10-06T12:13:06.874Z,1.58
2022-10-06T12:18:47.228Z,1.92
2022-10-06T12:21:27.760Z,1.70
2022-10-06T12:24:05.192Z,2.00
2022-10-06T12:26:54.072Z,2.28
2022-10-06T12:29:32.590Z,2.25
2022-10-06T12:32:08.166Z,2.47
2022-10-06T12:34:44.623Z,2.47
2022-10-06T12:37:34.862Z,3.67
2022-10-06T12:40:34.493Z,2.42
2022-10-06T12:43:31.626Z,2.50
2022-10-06T12:46:04.278Z,2.17
2022-10-06T12:48:39.366Z,2.25
2022-10-06T12:51:18.258Z,2.20
2022-10-06T12:53:53.996Z,1.98
2022-10-06T12:56:31.892Z,2.92
2022-10-06T12:59:20.495Z,3.33
2022-10-06T13:01:50.843Z,2.63
2022-10-06T13:04:34.719Z,2.20
2022-10-06T13:07:08.701Z,2.47
2022-10-06T13:09:38.633Z,2.00
2022-10-06T13:12:27.225Z,2.40
2022-10-06T13:15:17.670Z,1.95
2022-10-06T13:17:51.082Z,2.17
2022-10-06T13:20:23.627Z,2.47
2022-10-06T13:23:01.919Z,9.88
2022-10-06T13:25:39.333Z,2.50
2022-10-06T13:28:09.022Z,2.25
2022-10-06T13:30:41.551Z,3.30
2022-10-06T13:33:11.585Z,2.50
2022-10-06T13:35:41.377Z,2.00
2022-10-06T13:38:11.149Z,2.33
2022-10-06T13:40:44.428Z,2.10
2022-10-06T13:43:19.424Z,3.20
2022-10-06T13:45:52.117Z,6.07
2022-10-06T13:48:26.091Z,4.57
2022-10-06T13:53:27.656Z,2.40
2022-10-06T13:55:57.710Z,2.60
2022-10-06T13:58:30.103Z,2.50
2022-10-06T14:01:05.386Z,2.50
2022-10-06T14:03:37.372Z,2.63
2022-10-06T14:06:10.559Z,2.33
2022-10-06T14:08:40.330Z,2.22
2022-10-06T14:11:11.234Z,2.25
2022-10-06T14:13:45.317Z,1.90
2022-10-06T14:16:25.298Z,2.60
2022-10-06T14:19:00.137Z,2.28
2022-10-06T14:21:36.970Z,2.22
2022-10-06T14:24:26.232Z,2.38
2022-10-06T14:26:57.228Z,1.90
2022-10-06T14:29:26.806Z,2.67
2022-10-06T14:31:59.030Z,2.30
2022-10-06T14:34:29.288Z,2.30
2022-10-06T14:36:58.916Z,2.20
2022-10-06T14:39:28.625Z,2.17
2022-10-06T14:41:58.752Z,2.38
2022-10-06T14:44:28.380Z,2.08
2022-10-06T14:47:00.611Z,1.70
2022-10-06T14:49:30.220Z,6.93
2022-10-06T14:51:59.857Z,3.28
2022-10-06T14:54:29.715Z,2.22
2022-10-06T14:56:59.296Z,1.75
2022-10-06T14:59:28.907Z,2.13
2022-10-06T15:02:01.128Z,2.28
2022-10-06T15:04:31.418Z,2.08
2022-10-06T15:07:13.564Z,1.92
2022-10-06T15:09:43.147Z,2.08
2022-10-06T15:12:12.756Z,2.13
2022-10-06T15:14:42.378Z,2.03
2022-10-06T15:17:14.537Z,2.20
2022-10-06T15:19:44.265Z,1.92
2022-10-06T15:22:13.808Z,1.73
2022-10-06T15:24:48.667Z,2.40
2022-10-06T15:27:30.804Z,1.90
2022-10-06T15:30:00.430Z,1.70
2022-10-06T15:32:32.663Z,1.75
2022-10-06T15:35:02.309Z,2.30
2022-10-06T15:37:32.919Z,2.05
2022-10-06T15:40:04.594Z,2.50
2022-10-06T15:42:34.163Z,2.13
2022-10-06T15:45:07.446Z,2.38
2022-10-06T15:47:39.904Z,2.05
2022-10-06T15:50:11.365Z,1.90
2022-10-06T15:52:42.584Z,2.10
2022-10-06T15:55:13.407Z,2.00
2022-10-06T15:57:42.941Z,1.92
2022-10-06T16:00:14.311Z,2.03
2022-10-06T16:02:48.187Z,1.95
2022-10-06T16:08:17.813Z,1.90
2022-10-06T16:10:52.958Z,1.90
2022-10-06T16:13:22.601Z,2.15
2022-10-06T16:15:55.527Z,1.80
2022-10-06T16:18:28.709Z,1.88
2022-10-06T16:20:58.486Z,1.87
2022-10-06T16:23:28.087Z,5.43
2022-10-06T16:25:57.661Z,2.78
2022-10-06T16:28:27.298Z,3.30
2022-10-06T16:30:57.629Z,2.00
2022-10-06T16:33:29.825Z,3.20
2022-10-06T16:36:00.015Z,2.30
2022-10-06T16:38:29.744Z,1.85
2022-10-06T16:41:01.574Z,2.95
2022-10-06T16:43:33.735Z,1.88
2022-10-06T16:46:05.221Z,2.10
2022-10-06T16:48:38.624Z,3.90
2022-10-06T16:51:09.905Z,3.95
2022-10-06T16:53:40.943Z,4.13
2022-10-06T16:56:13.879Z,2.85
2022-10-06T16:58:45.162Z,3.85
2022-10-06T17:01:15.907Z,3.78
2022-10-06T17:03:48.469Z,2.38
2022-10-06T17:06:19.936Z,2.60
2022-10-06T17:08:49.567Z,2.30
2022-10-06T17:11:21.437Z,2.85
2022-10-06T17:13:51.969Z,6.43
2022-10-06T17:16:23.408Z,5.38
2022-10-06T17:18:57.192Z,6.05
2022-10-06T17:21:45.090Z,5.28
2022-10-06T17:24:17.729Z,3.15
2022-10-06T17:26:49.402Z,2.90
2022-10-06T17:29:21.288Z,2.92
2022-10-06T17:31:59.096Z,2.75
2022-10-06T17:34:33.370Z,2.63
2022-10-06T17:37:04.322Z,3.05
2022-10-06T17:39:34.228Z,2.70
2022-10-06T17:42:03.807Z,2.95
2022-10-06T17:44:33.851Z,2.70
2022-10-06T17:47:03.629Z,3.13
2022-10-06T17:49:36.262Z,2.92
2022-10-06T17:52:06.015Z,2.70
2022-10-06T17:54:35.671Z,2.80
2022-10-06T17:57:05.422Z,3.33
2022-10-06T17:59:35.002Z,3.90
2022-10-06T18:02:06.472Z,3.38
2022-10-06T18:04:38.844Z,4.50
2022-10-06T18:07:10.164Z,3.75
2022-10-06T18:09:39.764Z,3.80
2022-10-06T18:12:10.443Z,7.63
2022-10-06T18:14:40.263Z,7.93
2022-10-06T18:17:09.994Z,7.07
2022-10-06T18:19:44.185Z,6.57
2022-10-06T18:22:13.949Z,4.38
2022-10-06T18:24:43.813Z,4.50
2022-10-06T18:27:14.134Z,4.05
2022-10-06T18:29:43.710Z,8.65
2022-10-06T18:33:40.236Z,12.43
2022-10-06T18:37:56.839Z,17.67
2022-10-06T18:40:26.431Z,12.85
2022-10-06T18:42:56.026Z,5.47
2022-10-06T18:45:39.520Z,8.38
2022-10-06T18:48:34.889Z,10.60
2022-10-06T18:51:07.238Z,6.15
2022-10-06T18:53:37.323Z,5.03
2022-10-06T18:56:07.597Z,4.25
2022-10-06T18:58:41.793Z,4.95
2022-10-06T19:03:41.175Z,5.65
2022-10-06T19:06:13.865Z,7.50
2022-10-06T19:08:43.521Z,7.18
2022-10-06T19:11:26.476Z,6.35
2022-10-06T19:13:57.909Z,5.68
2022-10-06T19:16:27.628Z,5.40
2022-10-06T19:18:57.490Z,5.38
2022-10-06T19:21:30.132Z,6.80
2022-10-06T19:24:01.011Z,7.10
2022-10-06T19:26:30.951Z,23.48
2022-10-06T19:29:02.553Z,7.65
2022-10-06T19:31:34.666Z,6.97
2022-10-06T19:34:05.244Z,6.70
2022-10-06T19:36:38.295Z,6.40
2022-10-06T19:39:10.598Z,6.20
2022-10-06T19:41:52.976Z,8.98
2022-10-06T19:44:22.735Z,24.02
2022-10-06T19:46:54.236Z,30.17
2022-10-06T19:49:24.465Z,23.73
2022-10-06T19:51:57.541Z,7.88
2022-10-06T19:54:27.810Z,6.95
2022-10-06T19:56:59.922Z,12.38
2022-10-06T19:59:32.708Z,14.20
2022-10-06T20:02:02.312Z,10.10
2022-10-06T20:04:32.044Z,10.70
2022-10-06T20:07:04.362Z,11.32
2022-10-06T20:09:34.424Z,11.48
2022-10-06T20:12:04.348Z,9.13
2022-10-06T20:14:33.916Z,7.80
2022-10-06T20:17:03.709Z,6.20
2022-10-06T20:19:33.366Z,7.22
2022-10-06T20:22:06.109Z,6.45
2022-10-06T20:24:35.848Z,6.70
2022-10-06T20:27:05.539Z,6.75
2022-10-06T20:29:35.235Z,25.25
2022-10-06T20:32:05.467Z,7.63
2022-10-06T20:34:35.170Z,8.35
2022-10-06T20:37:08.262Z,6.88
2022-10-06T20:39:50.289Z,6.20
2022-10-06T20:42:20.356Z,6.68
2022-10-06T20:44:50.333Z,6.30
2022-10-06T20:47:21.239Z,6.68
2022-10-06T20:49:54.939Z,6.68
2022-10-06T20:52:27.371Z,6.72
2022-10-06T20:54:56.924Z,6.80
2022-10-06T20:57:33.630Z,6.35
2022-10-06T21:00:03.541Z,6.28
2022-10-06T21:02:33.497Z,5.70
2022-10-06T21:05:03.293Z,6.00
2022-10-06T21:07:35.667Z,6.40
2022-10-06T21:10:05.450Z,6.40
2022-10-06T21:12:35.238Z,5.95
2022-10-06T21:15:05.009Z,6.45
2022-10-06T21:17:34.763Z,6.63
2022-10-06T21:20:04.791Z,6.15
2022-10-06T21:22:37.149Z,6.68
2022-10-06T21:25:07.424Z,7.10
2022-10-06T21:27:37.307Z,6.63
2022-10-06T21:30:10.352Z,7.43
2022-10-06T21:32:40.287Z,6.80
2022-10-06T21:35:11.667Z,6.53
2022-10-06T21:37:44.594Z,6.10
2022-10-06T21:40:14.572Z,6.38
2022-10-06T21:42:44.389Z,6.05
2022-10-06T21:45:14.162Z,6.18
2022-10-06T21:47:44.669Z,6.18
2022-10-06T21:50:14.608Z,6.05
2022-10-06T21:52:47.006Z,5.85
2022-10-06T21:55:16.967Z,6.03
2022-10-06T21:57:46.998Z,6.47
2022-10-06T22:00:17.815Z,6.40
2022-10-06T22:02:47.674Z,6.30
2022-10-06T22:05:17.741Z,6.50
2022-10-06T22:07:50.132Z,6.03
2022-10-06T22:10:19.975Z,6.35
2022-10-06T22:12:49.762Z,5.70
2022-10-06T22:15:19.713Z,6.35
2022-10-06T22:17:49.599Z,6.30
2022-10-06T22:20:19.434Z,5.82
2022-10-06T22:22:53.983Z,5.70
2022-10-06T22:25:23.880Z,5.60
2022-10-06T22:27:53.678Z,5.25
2022-10-06T22:30:23.461Z,6.00
2022-10-06T22:32:53.220Z,5.40
2022-10-06T22:35:22.978Z,5.05
2022-10-06T22:37:55.351Z,5.40
2022-10-06T22:40:25.105Z,5.53
2022-10-06T22:42:54.859Z,4.03
2022-10-06T22:45:24.717Z,4.90
2022-10-06T22:47:54.490Z,4.72
2022-10-06T22:50:24.451Z,4.45
2022-10-06T22:52:56.835Z,4.70
2022-10-06T22:55:26.679Z,4.60
2022-10-06T22:57:56.424Z,3.92
2022-10-06T23:00:27.837Z,4.68
2022-10-06T23:02:57.709Z,4.10
2022-10-06T23:05:27.475Z,4.03
2022-10-06T23:07:59.906Z,4.30
2022-10-06T23:10:30.653Z,4.22
2022-10-06T23:13:01.254Z,4.20
2022-10-06T23:15:31.656Z,4.15
2022-10-06T23:18:01.419Z,4.53
2022-10-06T23:20:31.214Z,4.22
2022-10-06T23:23:03.611Z,4.32
2022-10-06T23:25:33.440Z,4.30
2022-10-06T23:28:03.195Z,4.40
2022-10-06T23:30:33.242Z,3.90
2022-10-06T23:33:03.018Z,4.15
2022-10-06T23:35:32.807Z,3.70
2022-10-06T23:38:05.429Z,3.85
2022-10-06T23:40:35.202Z,3.80
2022-10-06T23:43:05.228Z,4.05
2022-10-06T23:45:35.314Z,4.00
2022-10-06T23:48:05.153Z,4.10
2022-10-06T23:50:34.932Z,3.80
2022-10-06T23:53:07.354Z,4.03
2022-10-06T23:55:37.347Z,4.00
2022-10-06T23:58:07.091Z,4.32
